sensor_id;sensor_type;location;lat;lon;timestamp;P1;durP1;ratioP1;P2;durP2;ratioP2
82409;SDS011;72049;51.766;6.846;2023-08-21T00:00:04;2.90;;;2.03;;
82409;SDS011;72049;51.766;6.846;2023-08-21T00:02:29;4.57;;;2.08;;
82409;SDS011;72049;51.766;6.846;2023-08-21T00:04:55;5.28;;;1.88;;
82409;SDS011;72049;51.766;6.846;2023-08-21T00:07:21;3.42;;;1.30;;
82409;SDS011;72049;51.766;6.846;2023-08-21T00:09:46;3.88;;;1.60;;
82409;SDS011;72049;51.766;6.846;2023-08-21T00:12:11;5.20;;;1.58;;
82409;SDS011;72049;51.766;6.846;2023-08-21T00:14:37;5.35;;;1.60;;
82409;SDS011;72049;51.766;6.846;2023-08-21T00:17:02;5.13;;;1.70;;
82409;SDS011;72049;51.766;6.846;2023-08-21T00:19:32;6.75;;;1.80;;
82409;SDS011;72049;51.766;6.846;2023-08-21T00:21:57;6.63;;;2.33;;
82409;SDS011;72049;51.766;6.846;2023-08-21T00:24:22;4.50;;;1.80;;
82409;SDS011;72049;51.766;6.846;2023-08-21T00:26:48;4.10;;;1.70;;
82409;SDS011;72049;51.766;6.846;2023-08-21T00:29:13;4.47;;;1.83;;
82409;SDS011;72049;51.766;6.846;2023-08-21T00:31:38;3.40;;;1.80;;
82409;SDS011;72049;51.766;6.846;2023-08-21T00:34:07;3.17;;;1.65;;
82409;SDS011;72049;51.766;6.846;2023-08-21T00:36:32;5.57;;;1.87;;
82409;SDS011;72049;51.766;6.846;2023-08-21T00:38:57;4.55;;;2.47;;
82409;SDS011;72049;51.766;6.846;2023-08-21T00:41:23;5.97;;;2.20;;
82409;SDS011;72049;51.766;6.846;2023-08-21T00:43:50;4.15;;;1.70;;
82409;SDS011;72049;51.766;6.846;2023-08-21T00:46:16;5.10;;;1.58;;
82409;SDS011;72049;51.766;6.846;2023-08-21T00:48:42;3.38;;;1.50;;
82409;SDS011;72049;51.766;6.846;2023-08-21T00:51:08;3.60;;;1.30;;
82409;SDS011;72049;51.766;6.846;2023-08-21T00:53:33;3.65;;;1.35;;
82409;SDS011;72049;51.766;6.846;2023-08-21T00:55:59;4.35;;;1.67;;
82409;SDS011;72049;51.766;6.846;2023-08-21T00:58:24;5.05;;;1.67;;
82409;SDS011;72049;51.766;6.846;2023-08-21T01:00:49;4.20;;;1.73;;
82409;SDS011;72049;51.766;6.846;2023-08-21T01:03:18;4.55;;;1.60;;
82409;SDS011;72049;51.766;6.846;2023-08-21T01:05:43;3.97;;;1.30;;
82409;SDS011;72049;51.766;6.846;2023-08-21T01:10:52;5.03;;;2.03;;
82409;SDS011;72049;51.766;6.846;2023-08-21T01:13:21;4.47;;;1.75;;
82409;SDS011;72049;51.766;6.846;2023-08-21T01:15:47;3.92;;;1.75;;
82409;SDS011;72049;51.766;6.846;2023-08-21T01:18:13;3.58;;;1.45;;
82409;SDS011;72049;51.766;6.846;2023-08-21T01:20:39;3.80;;;1.75;;
82409;SDS011;72049;51.766;6.846;2023-08-21T01:23:06;4.05;;;1.40;;
82409;SDS011;72049;51.766;6.846;2023-08-21T01:25:31;4.00;;;1.55;;
82409;SDS011;72049;51.766;6.846;2023-08-21T01:27:57;5.20;;;2.17;;
82409;SDS011;72049;51.766;6.846;2023-08-21T01:30:22;5.03;;;1.83;;
82409;SDS011;72049;51.766;6.846;2023-08-21T01:33:06;2.70;;;1.55;;
82409;SDS011;72049;51.766;6.846;2023-08-21T01:35:35;4.95;;;1.60;;
82409;SDS011;72049;51.766;6.846;2023-08-21T01:38:00;5.50;;;1.92;;
82409;SDS011;72049;51.766;6.846;2023-08-21T01:40:26;6.63;;;2.00;;
82409;SDS011;72049;51.766;6.846;2023-08-21T01:42:54;4.68;;;1.60;;
82409;SDS011;72049;51.766;6.846;2023-08-21T01:45:20;5.18;;;1.75;;
82409;SDS011;72049;51.766;6.846;2023-08-21T01:47:46;7.00;;;2.20;;
82409;SDS011;72049;51.766;6.846;2023-08-21T01:50:11;4.60;;;1.60;;
82409;SDS011;72049;51.766;6.846;2023-08-21T01:52:37;4.50;;;1.60;;
82409;SDS011;72049;51.766;6.846;2023-08-21T01:55:02;3.47;;;1.90;;
82409;SDS011;72049;51.766;6.846;2023-08-21T01:57:29;4.38;;;1.80;;
82409;SDS011;72049;51.766;6.846;2023-08-21T01:59:54;5.13;;;1.63;;
82409;SDS011;72049;51.766;6.846;2023-08-21T02:02:20;4.55;;;1.60;;
82409;SDS011;72049;51.766;6.846;2023-08-21T02:04:45;5.63;;;1.83;;
82409;SDS011;72049;51.766;6.846;2023-08-21T02:07:11;3.38;;;1.80;;
82409;SDS011;72049;51.766;6.846;2023-08-21T02:09:36;5.97;;;1.63;;
82409;SDS011;72049;51.766;6.846;2023-08-21T02:12:01;5.97;;;2.30;;
82409;SDS011;72049;51.766;6.846;2023-08-21T02:14:27;3.95;;;1.70;;
82409;SDS011;72049;51.766;6.846;2023-08-21T02:16:53;3.85;;;1.90;;
82409;SDS011;72049;51.766;6.846;2023-08-21T02:19:18;4.83;;;1.73;;
82409;SDS011;72049;51.766;6.846;2023-08-21T02:21:43;7.37;;;1.90;;
82409;SDS011;72049;51.766;6.846;2023-08-21T02:24:08;6.20;;;2.50;;
82409;SDS011;72049;51.766;6.846;2023-08-21T02:26:34;4.57;;;2.27;;
82409;SDS011;72049;51.766;6.846;2023-08-21T02:28:59;4.93;;;2.40;;
82409;SDS011;72049;51.766;6.846;2023-08-21T02:31:24;4.53;;;2.13;;
82409;SDS011;72049;51.766;6.846;2023-08-21T02:33:50;4.97;;;2.37;;
82409;SDS011;72049;51.766;6.846;2023-08-21T02:36:15;4.22;;;2.00;;
82409;SDS011;72049;51.766;6.846;2023-08-21T02:38:41;5.53;;;2.20;;
82409;SDS011;72049;51.766;6.846;2023-08-21T02:41:07;5.13;;;2.08;;
82409;SDS011;72049;51.766;6.846;2023-08-21T02:43:33;5.60;;;1.90;;
82409;SDS011;72049;51.766;6.846;2023-08-21T02:45:58;6.25;;;2.30;;
82409;SDS011;72049;51.766;6.846;2023-08-21T02:48:23;6.03;;;2.60;;
82409;SDS011;72049;51.766;6.846;2023-08-21T02:50:49;5.83;;;2.03;;
82409;SDS011;72049;51.766;6.846;2023-08-21T02:53:14;7.93;;;2.47;;
82409;SDS011;72049;51.766;6.846;2023-08-21T02:55:39;3.20;;;1.70;;
82409;SDS011;72049;51.766;6.846;2023-08-21T02:58:05;7.13;;;2.10;;
82409;SDS011;72049;51.766;6.846;2023-08-21T03:00:30;6.10;;;2.00;;
82409;SDS011;72049;51.766;6.846;2023-08-21T03:02:55;6.17;;;2.20;;
82409;SDS011;72049;51.766;6.846;2023-08-21T03:05:20;3.97;;;2.10;;
82409;SDS011;72049;51.766;6.846;2023-08-21T03:07:46;4.27;;;2.00;;
82409;SDS011;72049;51.766;6.846;2023-08-21T03:10:13;3.17;;;1.80;;
82409;SDS011;72049;51.766;6.846;2023-08-21T03:12:39;5.50;;;2.08;;
82409;SDS011;72049;51.766;6.846;2023-08-21T03:15:04;4.07;;;1.85;;
82409;SDS011;72049;51.766;6.846;2023-08-21T03:17:30;5.65;;;2.45;;
82409;SDS011;72049;51.766;6.846;2023-08-21T03:19:55;4.60;;;2.23;;
82409;SDS011;72049;51.766;6.846;2023-08-21T03:22:22;3.45;;;1.95;;
82409;SDS011;72049;51.766;6.846;2023-08-21T03:24:47;4.27;;;1.80;;
82409;SDS011;72049;51.766;6.846;2023-08-21T03:27:14;6.60;;;2.13;;
82409;SDS011;72049;51.766;6.846;2023-08-21T03:29:40;5.22;;;1.77;;
82409;SDS011;72049;51.766;6.846;2023-08-21T03:32:06;4.85;;;1.95;;
82409;SDS011;72049;51.766;6.846;2023-08-21T03:34:31;8.05;;;2.17;;
82409;SDS011;72049;51.766;6.846;2023-08-21T03:36:59;7.13;;;2.22;;
82409;SDS011;72049;51.766;6.846;2023-08-21T03:39:28;4.90;;;2.13;;
82409;SDS011;72049;51.766;6.846;2023-08-21T03:41:53;3.33;;;2.00;;
82409;SDS011;72049;51.766;6.846;2023-08-21T03:44:19;5.67;;;1.93;;
82409;SDS011;72049;51.766;6.846;2023-08-21T03:46:44;2.72;;;1.73;;
82409;SDS011;72049;51.766;6.846;2023-08-21T03:49:09;4.17;;;1.70;;
82409;SDS011;72049;51.766;6.846;2023-08-21T03:51:35;4.68;;;1.90;;
82409;SDS011;72049;51.766;6.846;2023-08-21T03:54:00;6.23;;;2.00;;
82409;SDS011;72049;51.766;6.846;2023-08-21T03:56:25;4.65;;;2.00;;
82409;SDS011;72049;51.766;6.846;2023-08-21T03:58:53;6.22;;;2.15;;
82409;SDS011;72049;51.766;6.846;2023-08-21T04:01:19;3.92;;;1.88;;
82409;SDS011;72049;51.766;6.846;2023-08-21T04:03:44;5.87;;;2.03;;
82409;SDS011;72049;51.766;6.846;2023-08-21T04:06:11;5.32;;;1.90;;
82409;SDS011;72049;51.766;6.846;2023-08-21T04:08:36;6.47;;;2.60;;
82409;SDS011;72049;51.766;6.846;2023-08-21T04:11:01;8.13;;;2.37;;
82409;SDS011;72049;51.766;6.846;2023-08-21T04:13:27;4.57;;;2.05;;
82409;SDS011;72049;51.766;6.846;2023-08-21T04:15:53;5.80;;;1.90;;
82409;SDS011;72049;51.766;6.846;2023-08-21T04:18:19;7.93;;;2.40;;
82409;SDS011;72049;51.766;6.846;2023-08-21T04:20:44;6.80;;;2.23;;
82409;SDS011;72049;51.766;6.846;2023-08-21T04:23:09;5.07;;;2.00;;
82409;SDS011;72049;51.766;6.846;2023-08-21T04:25:35;5.30;;;2.25;;
82409;SDS011;72049;51.766;6.846;2023-08-21T04:28:00;6.37;;;2.70;;
82409;SDS011;72049;51.766;6.846;2023-08-21T04:30:26;4.88;;;2.50;;
82409;SDS011;72049;51.766;6.846;2023-08-21T04:32:52;6.40;;;2.67;;
82409;SDS011;72049;51.766;6.846;2023-08-21T04:35:18;4.38;;;2.17;;
82409;SDS011;72049;51.766;6.846;2023-08-21T04:37:45;7.07;;;2.60;;
82409;SDS011;72049;51.766;6.846;2023-08-21T04:40:12;4.80;;;2.38;;
82409;SDS011;72049;51.766;6.846;2023-08-21T04:42:38;5.50;;;2.10;;
82409;SDS011;72049;51.766;6.846;2023-08-21T04:45:03;4.60;;;2.20;;
82409;SDS011;72049;51.766;6.846;2023-08-21T04:47:32;6.55;;;2.55;;
82409;SDS011;72049;51.766;6.846;2023-08-21T04:49:59;5.03;;;2.20;;
82409;SDS011;72049;51.766;6.846;2023-08-21T04:52:25;4.78;;;2.40;;
82409;SDS011;72049;51.766;6.846;2023-08-21T04:54:52;7.82;;;2.50;;
82409;SDS011;72049;51.766;6.846;2023-08-21T04:57:17;6.13;;;2.60;;
82409;SDS011;72049;51.766;6.846;2023-08-21T04:59:43;5.95;;;2.20;;
82409;SDS011;72049;51.766;6.846;2023-08-21T05:02:09;9.25;;;2.58;;
82409;SDS011;72049;51.766;6.846;2023-08-21T05:04:35;3.78;;;2.25;;
82409;SDS011;72049;51.766;6.846;2023-08-21T05:07:02;4.63;;;2.42;;
82409;SDS011;72049;51.766;6.846;2023-08-21T05:09:27;3.42;;;2.40;;
82409;SDS011;72049;51.766;6.846;2023-08-21T05:11:53;3.03;;;2.10;;
82409;SDS011;72049;51.766;6.846;2023-08-21T05:14:19;4.65;;;2.28;;
82409;SDS011;72049;51.766;6.846;2023-08-21T05:16:45;7.95;;;3.17;;
82409;SDS011;72049;51.766;6.846;2023-08-21T05:19:18;5.65;;;2.53;;
82409;SDS011;72049;51.766;6.846;2023-08-21T05:21:43;5.15;;;2.30;;
82409;SDS011;72049;51.766;6.846;2023-08-21T05:24:09;5.20;;;2.40;;
82409;SDS011;72049;51.766;6.846;2023-08-21T05:26:37;4.65;;;2.42;;
82409;SDS011;72049;51.766;6.846;2023-08-21T05:29:02;5.25;;;2.40;;
82409;SDS011;72049;51.766;6.846;2023-08-21T05:31:28;3.75;;;2.22;;
82409;SDS011;72049;51.766;6.846;2023-08-21T05:33:54;5.65;;;2.70;;
82409;SDS011;72049;51.766;6.846;2023-08-21T05:36:20;6.03;;;2.58;;
82409;SDS011;72049;51.766;6.846;2023-08-21T05:38:45;5.87;;;2.43;;
82409;SDS011;72049;51.766;6.846;2023-08-21T05:41:11;6.32;;;2.60;;
82409;SDS011;72049;51.766;6.846;2023-08-21T05:43:36;6.93;;;3.08;;
82409;SDS011;72049;51.766;6.846;2023-08-21T05:46:01;5.53;;;3.00;;
82409;SDS011;72049;51.766;6.846;2023-08-21T05:48:27;4.70;;;2.72;;
82409;SDS011;72049;51.766;6.846;2023-08-21T05:50:53;6.78;;;3.20;;
82409;SDS011;72049;51.766;6.846;2023-08-21T05:53:18;6.88;;;2.63;;
82409;SDS011;72049;51.766;6.846;2023-08-21T05:55:44;4.43;;;2.33;;
82409;SDS011;72049;51.766;6.846;2023-08-21T05:58:09;6.80;;;2.60;;
82409;SDS011;72049;51.766;6.846;2023-08-21T06:00:35;6.10;;;2.80;;
82409;SDS011;72049;51.766;6.846;2023-08-21T06:03:02;5.38;;;2.83;;
82409;SDS011;72049;51.766;6.846;2023-08-21T06:05:57;6.20;;;2.63;;
82409;SDS011;72049;51.766;6.846;2023-08-21T06:08:22;4.85;;;2.55;;
82409;SDS011;72049;51.766;6.846;2023-08-21T06:10:51;9.43;;;2.53;;
82409;SDS011;72049;51.766;6.846;2023-08-21T06:13:16;5.78;;;2.30;;
82409;SDS011;72049;51.766;6.846;2023-08-21T06:15:43;3.22;;;2.10;;
82409;SDS011;72049;51.766;6.846;2023-08-21T06:18:08;6.85;;;2.55;;
82409;SDS011;72049;51.766;6.846;2023-08-21T06:20:35;7.57;;;3.25;;
82409;SDS011;72049;51.766;6.846;2023-08-21T06:23:01;6.60;;;2.70;;
82409;SDS011;72049;51.766;6.846;2023-08-21T06:25:26;8.07;;;3.25;;
82409;SDS011;72049;51.766;6.846;2023-08-21T06:27:51;5.80;;;2.63;;
82409;SDS011;72049;51.766;6.846;2023-08-21T06:30:17;7.53;;;2.80;;
82409;SDS011;72049;51.766;6.846;2023-08-21T06:32:43;6.00;;;2.67;;
82409;SDS011;72049;51.766;6.846;2023-08-21T06:35:09;6.30;;;2.50;;
82409;SDS011;72049;51.766;6.846;2023-08-21T06:37:36;5.60;;;2.40;;
82409;SDS011;72049;51.766;6.846;2023-08-21T06:40:01;6.28;;;2.47;;
82409;SDS011;72049;51.766;6.846;2023-08-21T06:42:27;5.80;;;2.72;;
82409;SDS011;72049;51.766;6.846;2023-08-21T06:44:52;8.00;;;2.45;;
82409;SDS011;72049;51.766;6.846;2023-08-21T06:47:17;4.50;;;2.00;;
82409;SDS011;72049;51.766;6.846;2023-08-21T06:49:43;5.50;;;1.83;;
82409;SDS011;72049;51.766;6.846;2023-08-21T06:52:08;7.33;;;2.37;;
82409;SDS011;72049;51.766;6.846;2023-08-21T06:54:33;2.80;;;1.77;;
82409;SDS011;72049;51.766;6.846;2023-08-21T06:56:59;2.95;;;1.30;;
82409;SDS011;72049;51.766;6.846;2023-08-21T06:59:24;5.60;;;1.80;;
82409;SDS011;72049;51.766;6.846;2023-08-21T07:01:49;4.20;;;1.47;;
82409;SDS011;72049;51.766;6.846;2023-08-21T07:04:16;6.00;;;1.42;;
82409;SDS011;72049;51.766;6.846;2023-08-21T07:06:41;5.88;;;1.40;;
82409;SDS011;72049;51.766;6.846;2023-08-21T07:09:06;4.97;;;1.37;;
82409;SDS011;72049;51.766;6.846;2023-08-21T07:11:32;4.47;;;1.42;;
82409;SDS011;72049;51.766;6.846;2023-08-21T07:13:57;3.67;;;1.60;;
82409;SDS011;72049;51.766;6.846;2023-08-21T07:16:23;4.80;;;2.00;;
82409;SDS011;72049;51.766;6.846;2023-08-21T07:18:48;3.85;;;1.40;;
82409;SDS011;72049;51.766;6.846;2023-08-21T07:21:13;5.05;;;1.17;;
82409;SDS011;72049;51.766;6.846;2023-08-21T07:23:39;1.87;;;0.97;;
82409;SDS011;72049;51.766;6.846;2023-08-21T07:26:04;5.17;;;1.33;;
82409;SDS011;72049;51.766;6.846;2023-08-21T07:28:32;4.15;;;1.40;;
82409;SDS011;72049;51.766;6.846;2023-08-21T07:30:57;3.70;;;1.27;;
82409;SDS011;72049;51.766;6.846;2023-08-21T07:33:26;3.97;;;1.50;;
82409;SDS011;72049;51.766;6.846;2023-08-21T07:36:01;4.72;;;1.20;;
82409;SDS011;72049;51.766;6.846;2023-08-21T07:38:27;3.83;;;1.20;;
82409;SDS011;72049;51.766;6.846;2023-08-21T07:41:08;4.28;;;1.20;;
82409;SDS011;72049;51.766;6.846;2023-08-21T07:43:35;6.55;;;1.33;;
82409;SDS011;72049;51.766;6.846;2023-08-21T07:46:04;3.30;;;1.30;;
82409;SDS011;72049;51.766;6.846;2023-08-21T07:48:30;5.22;;;1.23;;
82409;SDS011;72049;51.766;6.846;2023-08-21T07:50:55;2.97;;;0.98;;
82409;SDS011;72049;51.766;6.846;2023-08-21T07:53:21;3.03;;;1.05;;
82409;SDS011;72049;51.766;6.846;2023-08-21T07:55:46;6.80;;;1.30;;
82409;SDS011;72049;51.766;6.846;2023-08-21T07:58:12;5.67;;;1.10;;
82409;SDS011;72049;51.766;6.846;2023-08-21T08:00:37;4.05;;;1.00;;
82409;SDS011;72049;51.766;6.846;2023-08-21T08:03:04;2.33;;;1.10;;
82409;SDS011;72049;51.766;6.846;2023-08-21T08:05:30;3.45;;;1.10;;
82409;SDS011;72049;51.766;6.846;2023-08-21T08:07:56;3.13;;;1.20;;
82409;SDS011;72049;51.766;6.846;2023-08-21T08:10:21;4.97;;;1.23;;
82409;SDS011;72049;51.766;6.846;2023-08-21T08:12:46;5.87;;;1.20;;
82409;SDS011;72049;51.766;6.846;2023-08-21T08:15:12;4.93;;;1.47;;
82409;SDS011;72049;51.766;6.846;2023-08-21T08:17:37;6.20;;;1.47;;
82409;SDS011;72049;51.766;6.846;2023-08-21T08:20:02;5.67;;;1.30;;
82409;SDS011;72049;51.766;6.846;2023-08-21T08:22:28;4.30;;;1.20;;
82409;SDS011;72049;51.766;6.846;2023-08-21T08:24:53;4.37;;;1.23;;
82409;SDS011;72049;51.766;6.846;2023-08-21T08:27:18;2.87;;;0.90;;
82409;SDS011;72049;51.766;6.846;2023-08-21T08:29:43;5.63;;;1.30;;
82409;SDS011;72049;51.766;6.846;2023-08-21T08:32:09;4.23;;;1.10;;
82409;SDS011;72049;51.766;6.846;2023-08-21T08:34:34;4.60;;;1.40;;
82409;SDS011;72049;51.766;6.846;2023-08-21T08:36:59;3.27;;;1.50;;
82409;SDS011;72049;51.766;6.846;2023-08-21T08:39:25;3.73;;;1.00;;
82409;SDS011;72049;51.766;6.846;2023-08-21T08:41:51;3.50;;;1.07;;
82409;SDS011;72049;51.766;6.846;2023-08-21T08:44:19;4.47;;;1.23;;
82409;SDS011;72049;51.766;6.846;2023-08-21T08:46:44;5.10;;;1.25;;
82409;SDS011;72049;51.766;6.846;2023-08-21T08:49:10;4.22;;;1.25;;
82409;SDS011;72049;51.766;6.846;2023-08-21T08:51:36;4.10;;;1.27;;
82409;SDS011;72049;51.766;6.846;2023-08-21T08:54:03;3.08;;;1.13;;
82409;SDS011;72049;51.766;6.846;2023-08-21T08:56:29;3.50;;;1.45;;
82409;SDS011;72049;51.766;6.846;2023-08-21T08:58:54;3.50;;;1.13;;
82409;SDS011;72049;51.766;6.846;2023-08-21T09:01:19;3.70;;;0.90;;
82409;SDS011;72049;51.766;6.846;2023-08-21T09:03:44;3.93;;;1.00;;
82409;SDS011;72049;51.766;6.846;2023-08-21T09:06:10;2.07;;;1.00;;
82409;SDS011;72049;51.766;6.846;2023-08-21T09:08:35;4.47;;;1.45;;
82409;SDS011;72049;51.766;6.846;2023-08-21T09:11:01;3.53;;;1.53;;
82409;SDS011;72049;51.766;6.846;2023-08-21T09:13:27;5.88;;;1.42;;
82409;SDS011;72049;51.766;6.846;2023-08-21T09:15:53;3.10;;;1.10;;
82409;SDS011;72049;51.766;6.846;2023-08-21T09:18:19;4.25;;;1.30;;
82409;SDS011;72049;51.766;6.846;2023-08-21T09:20:44;5.28;;;1.20;;
82409;SDS011;72049;51.766;6.846;2023-08-21T09:23:13;4.90;;;1.10;;
82409;SDS011;72049;51.766;6.846;2023-08-21T09:25:38;7.15;;;1.50;;
82409;SDS011;72049;51.766;6.846;2023-08-21T09:28:04;5.07;;;0.90;;
82409;SDS011;72049;51.766;6.846;2023-08-21T09:30:34;3.97;;;1.08;;
82409;SDS011;72049;51.766;6.846;2023-08-21T09:33:09;3.67;;;0.90;;
82409;SDS011;72049;51.766;6.846;2023-08-21T09:35:34;4.88;;;1.10;;
82409;SDS011;72049;51.766;6.846;2023-08-21T09:38:00;4.85;;;1.20;;
82409;SDS011;72049;51.766;6.846;2023-08-21T09:40:25;5.18;;;1.48;;
82409;SDS011;72049;51.766;6.846;2023-08-21T09:42:54;5.05;;;1.48;;
82409;SDS011;72049;51.766;6.846;2023-08-21T09:45:21;4.13;;;1.27;;
82409;SDS011;72049;51.766;6.846;2023-08-21T09:47:47;4.22;;;1.30;;
82409;SDS011;72049;51.766;6.846;2023-08-21T09:50:14;4.00;;;0.90;;
82409;SDS011;72049;51.766;6.846;2023-08-21T09:52:39;4.05;;;0.95;;
82409;SDS011;72049;51.766;6.846;2023-08-21T09:55:04;5.22;;;1.50;;
82409;SDS011;72049;51.766;6.846;2023-08-21T09:57:30;3.60;;;1.38;;
82409;SDS011;72049;51.766;6.846;2023-08-21T09:59:56;2.67;;;1.02;;
82409;SDS011;72049;51.766;6.846;2023-08-21T10:02:22;5.60;;;1.00;;
82409;SDS011;72049;51.766;6.846;2023-08-21T10:04:48;3.63;;;1.10;;
82409;SDS011;72049;51.766;6.846;2023-08-21T10:07:13;6.55;;;1.42;;
82409;SDS011;72049;51.766;6.846;2023-08-21T10:09:41;6.63;;;1.60;;
82409;SDS011;72049;51.766;6.846;2023-08-21T10:12:08;3.22;;;1.20;;
82409;SDS011;72049;51.766;6.846;2023-08-21T10:14:34;4.35;;;1.00;;
82409;SDS011;72049;51.766;6.846;2023-08-21T10:17:01;5.30;;;1.20;;
82409;SDS011;72049;51.766;6.846;2023-08-21T10:19:32;3.28;;;1.08;;
82409;SDS011;72049;51.766;6.846;2023-08-21T10:21:57;3.40;;;1.05;;
82409;SDS011;72049;51.766;6.846;2023-08-21T10:24:27;5.30;;;1.33;;
82409;SDS011;72049;51.766;6.846;2023-08-21T10:26:59;2.72;;;1.15;;
82409;SDS011;72049;51.766;6.846;2023-08-21T10:29:25;2.75;;;0.93;;
82409;SDS011;72049;51.766;6.846;2023-08-21T10:32:03;2.88;;;0.90;;
82409;SDS011;72049;51.766;6.846;2023-08-21T10:34:33;4.85;;;1.30;;
82409;SDS011;72049;51.766;6.846;2023-08-21T10:37:05;6.45;;;1.17;;
82409;SDS011;72049;51.766;6.846;2023-08-21T10:39:34;3.78;;;1.20;;
82409;SDS011;72049;51.766;6.846;2023-08-21T10:42:04;5.00;;;1.25;;
82409;SDS011;72049;51.766;6.846;2023-08-21T10:47:21;3.08;;;1.27;;
82409;SDS011;72049;51.766;6.846;2023-08-21T10:49:47;3.88;;;1.75;;
82409;SDS011;72049;51.766;6.846;2023-08-21T10:52:13;3.92;;;1.77;;
82409;SDS011;72049;51.766;6.846;2023-08-21T10:54:43;3.15;;;0.93;;
82409;SDS011;72049;51.766;6.846;2023-08-21T10:57:09;3.50;;;1.70;;
82409;SDS011;72049;51.766;6.846;2023-08-21T10:59:34;3.58;;;1.30;;
82409;SDS011;72049;51.766;6.846;2023-08-21T11:01:59;5.97;;;1.27;;
82409;SDS011;72049;51.766;6.846;2023-08-21T11:04:25;6.75;;;1.10;;
82409;SDS011;72049;51.766;6.846;2023-08-21T11:06:51;3.55;;;1.00;;
82409;SDS011;72049;51.766;6.846;2023-08-21T11:09:18;3.80;;;1.20;;
82409;SDS011;72049;51.766;6.846;2023-08-21T11:11:45;3.10;;;0.77;;
82409;SDS011;72049;51.766;6.846;2023-08-21T11:14:11;2.88;;;1.05;;
82409;SDS011;72049;51.766;6.846;2023-08-21T11:16:36;6.68;;;1.55;;
82409;SDS011;72049;51.766;6.846;2023-08-21T11:19:03;4.18;;;1.42;;
82409;SDS011;72049;51.766;6.846;2023-08-21T11:21:33;5.63;;;1.30;;
82409;SDS011;72049;51.766;6.846;2023-08-21T11:23:58;5.50;;;1.40;;
82409;SDS011;72049;51.766;6.846;2023-08-21T11:26:24;3.88;;;1.25;;
82409;SDS011;72049;51.766;6.846;2023-08-21T11:28:50;2.83;;;1.10;;
82409;SDS011;72049;51.766;6.846;2023-08-21T11:31:17;4.07;;;1.23;;
82409;SDS011;72049;51.766;6.846;2023-08-21T11:33:49;4.72;;;1.35;;
82409;SDS011;72049;51.766;6.846;2023-08-21T11:36:14;3.65;;;1.23;;
82409;SDS011;72049;51.766;6.846;2023-08-21T11:38:40;4.50;;;1.63;;
82409;SDS011;72049;51.766;6.846;2023-08-21T11:41:05;4.60;;;1.42;;
82409;SDS011;72049;51.766;6.846;2023-08-21T11:46:00;3.33;;;1.60;;
82409;SDS011;72049;51.766;6.846;2023-08-21T11:48:26;2.95;;;1.02;;
82409;SDS011;72049;51.766;6.846;2023-08-21T11:50:52;4.32;;;0.90;;
82409;SDS011;72049;51.766;6.846;2023-08-21T11:53:29;5.13;;;1.40;;
82409;SDS011;72049;51.766;6.846;2023-08-21T11:55:55;3.33;;;1.25;;
82409;SDS011;72049;51.766;6.846;2023-08-21T11:58:21;4.65;;;1.42;;
82409;SDS011;72049;51.766;6.846;2023-08-21T12:00:51;5.40;;;1.00;;
82409;SDS011;72049;51.766;6.846;2023-08-21T12:03:17;4.68;;;1.30;;
82409;SDS011;72049;51.766;6.846;2023-08-21T12:05:43;3.40;;;1.13;;
82409;SDS011;72049;51.766;6.846;2023-08-21T12:08:11;7.70;;;1.63;;
82409;SDS011;72049;51.766;6.846;2023-08-21T12:10:37;4.60;;;1.47;;
82409;SDS011;72049;51.766;6.846;2023-08-21T12:13:02;2.55;;;1.10;;
82409;SDS011;72049;51.766;6.846;2023-08-21T12:18:27;3.50;;;1.13;;
82409;SDS011;72049;51.766;6.846;2023-08-21T12:20:52;5.67;;;1.20;;
82409;SDS011;72049;51.766;6.846;2023-08-21T12:23:17;3.83;;;1.10;;
82409;SDS011;72049;51.766;6.846;2023-08-21T12:25:43;4.28;;;1.40;;
82409;SDS011;72049;51.766;6.846;2023-08-21T12:28:08;5.37;;;1.10;;
82409;SDS011;72049;51.766;6.846;2023-08-21T12:30:34;4.68;;;1.30;;
82409;SDS011;72049;51.766;6.846;2023-08-21T12:32:59;3.78;;;1.10;;
82409;SDS011;72049;51.766;6.846;2023-08-21T12:35:25;3.00;;;1.00;;
82409;SDS011;72049;51.766;6.846;2023-08-21T12:37:50;3.50;;;1.00;;
82409;SDS011;72049;51.766;6.846;2023-08-21T12:40:15;4.67;;;1.33;;
82409;SDS011;72049;51.766;6.846;2023-08-21T12:42:41;3.22;;;0.98;;
82409;SDS011;72049;51.766;6.846;2023-08-21T12:45:06;1.53;;;0.90;;
82409;SDS011;72049;51.766;6.846;2023-08-21T12:47:31;3.38;;;0.93;;
82409;SDS011;72049;51.766;6.846;2023-08-21T12:49:57;4.30;;;1.08;;
82409;SDS011;72049;51.766;6.846;2023-08-21T12:52:23;3.47;;;1.07;;
82409;SDS011;72049;51.766;6.846;2023-08-21T12:54:48;3.47;;;0.90;;
82409;SDS011;72049;51.766;6.846;2023-08-21T12:57:13;4.57;;;1.27;;
82409;SDS011;72049;51.766;6.846;2023-08-21T12:59:39;5.18;;;1.13;;
82409;SDS011;72049;51.766;6.846;2023-08-21T13:02:04;3.63;;;1.13;;
82409;SDS011;72049;51.766;6.846;2023-08-21T13:04:29;3.07;;;1.13;;
82409;SDS011;72049;51.766;6.846;2023-08-21T13:06:55;4.10;;;1.70;;
82409;SDS011;72049;51.766;6.846;2023-08-21T13:09:20;2.70;;;1.20;;
82409;SDS011;72049;51.766;6.846;2023-08-21T13:11:46;2.55;;;1.00;;
82409;SDS011;72049;51.766;6.846;2023-08-21T13:14:11;4.82;;;1.10;;
82409;SDS011;72049;51.766;6.846;2023-08-21T13:16:36;4.63;;;1.60;;
82409;SDS011;72049;51.766;6.846;2023-08-21T13:19:02;3.37;;;1.03;;
82409;SDS011;72049;51.766;6.846;2023-08-21T13:21:27;4.03;;;1.50;;
82409;SDS011;72049;51.766;6.846;2023-08-21T13:23:52;4.03;;;1.23;;
82409;SDS011;72049;51.766;6.846;2023-08-21T13:26:18;4.40;;;1.40;;
82409;SDS011;72049;51.766;6.846;2023-08-21T13:28:43;5.07;;;1.13;;
82409;SDS011;72049;51.766;6.846;2023-08-21T13:31:08;3.53;;;1.42;;
82409;SDS011;72049;51.766;6.846;2023-08-21T13:33:43;2.60;;;1.10;;
82409;SDS011;72049;51.766;6.846;2023-08-21T13:36:09;5.25;;;1.25;;
82409;SDS011;72049;51.766;6.846;2023-08-21T13:38:34;4.75;;;1.13;;
82409;SDS011;72049;51.766;6.846;2023-08-21T13:41:00;3.90;;;1.23;;
82409;SDS011;72049;51.766;6.846;2023-08-21T13:43:25;3.37;;;1.20;;
82409;SDS011;72049;51.766;6.846;2023-08-21T13:45:50;4.30;;;1.20;;
82409;SDS011;72049;51.766;6.846;2023-08-21T13:48:15;3.40;;;1.10;;
82409;SDS011;72049;51.766;6.846;2023-08-21T13:50:41;4.43;;;1.40;;
82409;SDS011;72049;51.766;6.846;2023-08-21T13:53:06;3.08;;;1.50;;
82409;SDS011;72049;51.766;6.846;2023-08-21T13:55:32;5.28;;;1.38;;
82409;SDS011;72049;51.766;6.846;2023-08-21T13:57:58;4.78;;;1.50;;
82409;SDS011;72049;51.766;6.846;2023-08-21T14:00:23;3.33;;;1.33;;
82409;SDS011;72049;51.766;6.846;2023-08-21T14:02:50;4.28;;;1.45;;
82409;SDS011;72049;51.766;6.846;2023-08-21T14:05:15;2.30;;;1.13;;
82409;SDS011;72049;51.766;6.846;2023-08-21T14:07:50;4.28;;;1.23;;
82409;SDS011;72049;51.766;6.846;2023-08-21T14:13:06;2.95;;;1.30;;
82409;SDS011;72049;51.766;6.846;2023-08-21T14:15:33;3.75;;;1.30;;
82409;SDS011;72049;51.766;6.846;2023-08-21T14:17:59;2.47;;;1.00;;
82409;SDS011;72049;51.766;6.846;2023-08-21T14:20:24;4.10;;;1.70;;
82409;SDS011;72049;51.766;6.846;2023-08-21T14:22:50;4.55;;;1.42;;
82409;SDS011;72049;51.766;6.846;2023-08-21T14:25:15;2.97;;;1.17;;
82409;SDS011;72049;51.766;6.846;2023-08-21T14:27:49;3.67;;;1.40;;
82409;SDS011;72049;51.766;6.846;2023-08-21T14:30:14;5.07;;;1.42;;
82409;SDS011;72049;51.766;6.846;2023-08-21T14:32:40;2.50;;;1.23;;
82409;SDS011;72049;51.766;6.846;2023-08-21T14:35:05;4.05;;;1.45;;
82409;SDS011;72049;51.766;6.846;2023-08-21T14:37:33;3.63;;;1.10;;
82409;SDS011;72049;51.766;6.846;2023-08-21T14:39:58;4.10;;;1.13;;
82409;SDS011;72049;51.766;6.846;2023-08-21T14:42:24;4.23;;;1.97;;
82409;SDS011;72049;51.766;6.846;2023-08-21T14:44:52;3.30;;;1.27;;
82409;SDS011;72049;51.766;6.846;2023-08-21T14:47:18;2.63;;;1.30;;
82409;SDS011;72049;51.766;6.846;2023-08-21T14:49:43;3.90;;;1.20;;
82409;SDS011;72049;51.766;6.846;2023-08-21T14:52:08;4.30;;;1.20;;
82409;SDS011;72049;51.766;6.846;2023-08-21T14:54:40;2.92;;;1.10;;